Time;durP1;ratioP1;P1;durP2;ratioP2;P2;SDS_P1;SDS_P2;PMS_P1;PMS_P2;Temp;Humidity;BMP_temperature;BMP_pressure;BME280_temperature;BME280_humidity;BME280_pressure;Samples;Min_cycle;Max_cycle;Signal;HPM_P1;HPM_P2
2020/12/12 16:05:35;;;;;;;;;;;;;;;;;;5000506;27;20324;-53
2020/12/12 16:10:50;;;;;;;;;;;;;;;;;;5075785;27;20295;-69
2020/12/12 16:13:15;;;;;;;;;;;;;;;;;;4941355;28;19929;-66
2020/12/12 16:15:40;;;;;;;;;;;;;;;;;;5040400;28;19913;-70
2020/12/12 16:20:24;;;;;;;20.45;14.23;;;;;;;;;;4957559;27;71208;-58
2020/12/12 16:22:49;;;;;;;18.33;13.07;;;;;;;;;;5021573;28;20036;-59
2020/12/12 16:25:16;;;;;;;20.35;13.40;;;;;;;;;;5062330;28;20020;-58
2020/12/12 16:27:41;;;;;;;19.63;13.30;;;;;;;;;;4994963;28;80888;-56
2020/12/12 16:30:09;;;;;;;20.63;12.27;;;;;;;;;;5054217;28;20021;-55
2020/12/12 16:32:35;;;;;;;17.70;12.40;;;;;;;;;;5055026;28;20353;-54
2020/12/12 16:35:00;;;;;;;18.92;12.25;;;;;;;;;;5054025;28;20108;-57
2020/12/12 16:37:25;;;;;;;16.15;12.05;;;;;;;;;;5056456;28;20052;-57
2020/12/12 16:39:51;;;;;;;16.38;12.20;;;;;;;;;;5033466;28;20058;-60
2020/12/12 16:42:17;;;;;;;21.92;13.73;;;;;;;;;;5065105;28;20009;-60
2020/12/12 16:44:42;;;;;;;20.90;13.68;;;;;;;;;;5056135;28;20120;-60
2020/12/12 16:47:07;;;;;;;19.80;13.23;;;;;;;;;;5012718;28;109406;-61
2020/12/12 16:49:33;;;;;;;20.27;13.60;;;;;;;;;;5054833;28;20021;-57
2020/12/12 16:52:01;;;;;;;17.95;13.10;;;;;;;;;;5056089;28;20392;-56
2020/12/12 16:54:27;;;;;;;18.40;13.80;;;;;;;;;;5055033;28;20467;-56
2020/12/12 16:56:52;;;;;;;19.33;13.75;;;;;;;;;;5054998;28;20120;-56
2020/12/12 16:59:18;;;;;;;18.63;13.32;;;;;;;;;;5054860;28;20106;-54
2020/12/12 17:01:44;;;;;;;18.38;12.45;;;;;;;;;;5055307;28;20155;-57
2020/12/12 17:04:09;;;;;;;20.65;14.95;;;;;;;;;;5055453;28;20052;-52
2020/12/12 17:06:35;;;;;;;24.45;15.88;;;;;;;;;;5055321;28;20056;-56
2020/12/12 17:09:00;;;;;;;23.33;16.40;;;;;;;;;;5054897;28;20519;-57
2020/12/12 17:11:28;;;;;;;24.42;16.35;;;;;;;;;;4920408;28;76222;-55
2020/12/12 17:13:53;;;;;;;22.38;15.40;;;;;;;;;;5063955;28;20021;-53
2020/12/12 17:16:19;;;;;;;20.05;15.20;;;;;;;;;;5054805;28;20029;-54
2020/12/12 17:18:44;;;;;;;20.17;15.20;;;;;;;;;;5060588;28;20041;-52
2020/12/12 17:21:10;;;;;;;22.75;16.73;;;;;;;;;;5074683;28;20021;-52
2020/12/12 17:23:36;;;;;;;20.80;15.90;;;;;;;;;;5074421;28;20020;-57
2020/12/12 17:26:01;;;;;;;21.88;15.40;;;;;;;;;;5073790;28;20081;-58
2020/12/12 17:28:26;;;;;;;19.33;14.13;;;;;;;;;;5073656;28;20031;-56
2020/12/12 17:30:51;;;;;;;19.30;14.65;;;;;;;;;;5066275;28;20020;-63
2020/12/12 17:33:17;;;;;;;20.60;13.77;;;;;;;;;;5061080;28;20020;-61
2020/12/12 17:35:42;;;;;;;18.42;13.73;;;;;;;;;;5061205;28;20446;-57
2020/12/12 17:38:07;;;;;;;16.75;12.18;;;;;;;;;;5059968;28;20028;-62
2020/12/12 17:40:33;;;;;;;18.10;12.80;;;;;;;;;;5061535;28;20024;-61
2020/12/12 17:42:58;;;;;;;17.58;12.68;;;;;;;;;;5061274;28;20028;-57
2020/12/12 17:45:23;;;;;;;16.85;12.32;;;;;;;;;;5060483;28;20033;-60
2020/12/12 17:47:49;;;;;;;17.13;12.27;;;;;;;;;;5061449;28;20017;-59
2020/12/12 17:50:14;;;;;;;16.40;11.50;;;;;;;;;;5060287;28;20032;-59
2020/12/12 17:52:43;;;;;;;16.08;11.50;;;;;;;;;;5060364;28;20099;-59
2020/12/12 17:55:09;;;;;;;17.00;11.02;;;;;;;;;;5061031;28;20088;-60
2020/12/12 17:57:41;;;;;;;17.08;11.68;;;;;;;;;;5061197;28;20169;-57
2020/12/12 18:00:08;;;;;;;14.27;11.25;;;;;;;;;;5059984;28;20821;-55
2020/12/12 18:02:36;;;;;;;16.80;11.20;;;;;;;;;;5060494;28;20503;-55
2020/12/12 18:05:03;;;;;;;14.70;11.25;;;;;;;;;;5061310;28;20025;-58
2020/12/12 18:07:29;;;;;;;12.23;10.32;;;;;;;;;;5059693;28;20021;-56
2020/12/12 18:09:54;;;;;;;14.82;10.40;;;;;;;;;;5060339;28;20545;-57
2020/12/12 18:12:20;;;;;;;13.77;10.80;;;;;;;;;;5061075;28;20107;-58
2020/12/12 18:14:45;;;;;;;14.68;10.77;;;;;;;;;;5060998;28;20488;-58
2020/12/12 18:17:10;;;;;;;15.05;11.23;;;;;;;;;;5060087;28;20028;-55
2020/12/12 18:19:35;;;;;;;13.38;10.55;;;;;;;;;;5059844;28;20055;-56
2020/12/12 18:22:01;;;;;;;39.63;13.20;;;;;;;;;;5060463;28;20017;-56
2020/12/12 18:24:26;;;;;;;27.27;12.40;;;;;;;;;;5061046;28;20025;-55
2020/12/12 18:26:53;;;;;;;23.85;12.15;;;;;;;;;;5061301;28;20384;-55
2020/12/12 18:29:18;;;;;;;23.48;11.68;;;;;;;;;;5059346;28;20024;-55
2020/12/12 18:31:44;;;;;;;26.08;13.00;;;;;;;;;;5060959;28;20020;-60
2020/12/12 18:34:09;;;;;;;24.73;12.00;;;;;;;;;;5059562;28;20021;-60
2020/12/12 18:36:34;;;;;;;20.67;11.93;;;;;;;;;;5059182;28;20407;-60
2020/12/12 18:38:59;;;;;;;22.50;12.23;;;;;;;;;;5059803;28;20833;-60
2020/12/12 18:41:25;;;;;;;21.13;12.02;;;;;;;;;;5059011;28;21249;-58
2020/12/12 18:43:53;;;;;;;21.58;12.05;;;;;;;;;;5059837;28;20021;-60
2020/12/12 18:46:18;;;;;;;20.50;11.82;;;;;;;;;;5059038;28;20096;-59
2020/12/12 18:48:44;;;;;;;22.35;12.55;;;;;;;;;;5059731;28;20095;-56
2020/12/12 18:51:09;;;;;;;22.73;12.27;;;;;;;;;;5059567;28;20028;-58
2020/12/12 18:53:34;;;;;;;17.15;11.88;;;;;;;;;;5059264;28;20494;-59
2020/12/12 18:55:59;;;;;;;22.55;12.50;;;;;;;;;;5058391;28;20024;-59
2020/12/12 18:58:25;;;;;;;24.10;12.35;;;;;;;;;;5058438;28;20025;-59
2020/12/12 19:00:51;;;;;;;18.63;12.00;;;;;;;;;;5058401;28;20114;-57
2020/12/12 19:03:16;;;;;;;22.55;11.57;;;;;;;;;;5057362;28;20112;-60
2020/12/12 19:05:41;;;;;;;20.67;12.05;;;;;;;;;;5058399;28;20025;-56
2020/12/12 19:08:06;;;;;;;20.00;11.43;;;;;;;;;;5057816;28;20112;-56
2020/12/12 19:10:33;;;;;;;18.92;11.90;;;;;;;;;;5059292;28;20021;-57
2020/12/12 19:13:01;;;;;;;20.50;11.93;;;;;;;;;;5060061;28;20456;-59
2020/12/12 19:15:27;;;;;;;20.58;12.43;;;;;;;;;;5059541;28;20071;-58
2020/12/12 19:17:52;;;;;;;17.52;11.30;;;;;;;;;;5059813;28;20045;-60
2020/12/12 19:20:18;;;;;;;15.68;11.00;;;;;;;;;;5058906;28;20140;-59
2020/12/12 19:22:43;;;;;;;18.00;11.52;;;;;;;;;;5060096;28;20420;-59
2020/12/12 19:25:09;;;;;;;14.70;10.20;;;;;;;;;;5059250;28;20088;-59
2020/12/12 19:27:34;;;;;;;17.73;10.35;;;;;;;;;;5059849;28;20016;-59
2020/12/12 19:30:00;;;;;;;18.23;9.47;;;;;;;;;;5059301;28;20021;-59
2020/12/12 19:32:25;;;;;;;13.05;9.32;;;;;;;;;;5059642;28;20466;-59
2020/12/12 19:34:50;;;;;;;12.68;8.85;;;;;;;;;;5059677;28;20488;-58
2020/12/12 19:37:16;;;;;;;13.75;8.57;;;;;;;;;;5041360;28;20028;-59
2020/12/12 19:39:41;;;;;;;11.95;8.55;;;;;;;;;;5059345;28;20031;-57
2020/12/12 19:42:07;;;;;;;14.52;9.18;;;;;;;;;;5059426;28;20461;-57
2020/12/12 19:44:32;;;;;;;11.52;8.95;;;;;;;;;;5059175;28;20027;-59
2020/12/12 19:46:58;;;;;;;11.93;8.57;;;;;;;;;;5059783;28;20873;-60
2020/12/12 19:49:24;;;;;;;10.70;8.55;;;;;;;;;;5057282;28;20116;-62
2020/12/12 19:51:50;;;;;;;10.27;7.43;;;;;;;;;;5058704;28;20021;-61
2020/12/12 19:54:15;;;;;;;11.13;7.55;;;;;;;;;;5058433;28;20473;-60
2020/12/12 19:56:44;;;;;;;9.82;7.80;;;;;;;;;;5059584;28;20023;-60
2020/12/12 19:59:09;;;;;;;10.52;8.15;;;;;;;;;;5057824;28;20082;-60
2020/12/12 20:01:34;;;;;;;9.63;7.57;;;;;;;;;;5058375;28;20021;-60
2020/12/12 20:03:59;;;;;;;10.03;7.40;;;;;;;;;;5058227;28;20021;-60
2020/12/12 20:06:25;;;;;;;9.60;7.60;;;;;;;;;;5057266;28;20438;-62
2020/12/12 20:08:50;;;;;;;9.85;7.82;;;;;;;;;;5058790;28;20081;-61
2020/12/12 20:11:15;;;;;;;9.17;7.40;;;;;;;;;;5058832;28;20111;-61
2020/12/12 20:13:41;;;;;;;10.70;7.28;;;;;;;;;;5058529;28;20471;-60
2020/12/12 20:16:07;;;;;;;10.27;7.50;;;;;;;;;;5059289;28;20043;-60
2020/12/12 20:18:33;;;;;;;10.45;7.63;;;;;;;;;;5057399;28;20053;-60
2020/12/12 20:20:58;;;;;;;9.52;7.35;;;;;;;;;;5057959;28;20062;-60
2020/12/12 20:23:24;;;;;;;9.23;7.60;;;;;;;;;;5058609;28;20489;-62
2020/12/12 20:25:49;;;;;;;8.77;7.88;;;;;;;;;;5059194;28;20025;-61
2020/12/12 20:28:15;;;;;;;9.90;7.97;;;;;;;;;;5057846;28;20020;-59
2020/12/12 20:30:40;;;;;;;9.18;8.07;;;;;;;;;;5058321;28;20550;-61
2020/12/12 20:33:05;;;;;;;8.48;7.57;;;;;;;;;;5058470;28;20052;-60
2020/12/12 20:35:31;;;;;;;9.70;8.00;;;;;;;;;;5057244;28;20039;-61
2020/12/12 20:37:56;;;;;;;9.65;8.30;;;;;;;;;;5058509;28;20061;-61
2020/12/12 20:40:23;;;;;;;10.18;8.65;;;;;;;;;;5056637;28;20029;-61
2020/12/12 20:42:49;;;;;;;10.98;9.15;;;;;;;;;;5057565;28;20036;-61
2020/12/12 20:45:14;;;;;;;10.02;8.95;;;;;;;;;;5058420;28;20032;-59
2020/12/12 20:47:39;;;;;;;9.15;8.25;;;;;;;;;;5058904;28;20016;-60
2020/12/12 20:50:05;;;;;;;9.25;8.35;;;;;;;;;;5056945;28;20099;-61
2020/12/12 20:52:30;;;;;;;9.45;8.50;;;;;;;;;;5057822;28;20540;-62
2020/12/12 20:54:55;;;;;;;10.02;9.02;;;;;;;;;;5058523;28;20021;-60
2020/12/12 20:57:22;;;;;;;10.43;9.43;;;;;;;;;;5057653;28;20024;-60
2020/12/12 20:59:47;;;;;;;10.80;9.70;;;;;;;;;;5057786;28;20033;-61
2020/12/12 21:02:15;;;;;;;10.70;9.60;;;;;;;;;;5057147;28;20078;-60
2020/12/12 21:04:40;;;;;;;10.80;9.70;;;;;;;;;;5057684;28;20995;-61
2020/12/12 21:07:06;;;;;;;11.15;10.05;;;;;;;;;;5062102;28;20142;-60
2020/12/12 21:09:31;;;;;;;10.43;9.50;;;;;;;;;;5060372;28;20017;-61
2020/12/12 21:11:57;;;;;;;11.73;10.52;;;;;;;;;;5061960;28;20070;-61
2020/12/12 21:14:22;;;;;;;11.10;10.00;;;;;;;;;;5060830;28;20061;-60
2020/12/12 21:16:48;;;;;;;11.45;10.35;;;;;;;;;;5061405;28;20025;-61
2020/12/12 21:19:13;;;;;;;11.93;10.82;;;;;;;;;;5060169;28;20067;-60
2020/12/12 21:21:38;;;;;;;11.73;10.63;;;;;;;;;;5061455;28;20013;-61
2020/12/12 21:24:04;;;;;;;10.73;9.63;;;;;;;;;;5061602;28;20012;-61
2020/12/12 21:26:29;;;;;;;9.43;8.52;;;;;;;;;;5061556;28;20024;-63
2020/12/12 21:28:54;;;;;;;9.95;8.90;;;;;;;;;;5061148;28;20092;-61
2020/12/12 21:31:21;;;;;;;9.52;8.55;;;;;;;;;;5060768;28;20549;-60
2020/12/12 21:33:47;;;;;;;9.18;8.27;;;;;;;;;;5060785;28;20016;-60
2020/12/12 21:36:12;;;;;;;8.93;8.05;;;;;;;;;;5061381;28;20017;-61
2020/12/12 21:38:37;;;;;;;9.32;8.43;;;;;;;;;;5060911;28;20017;-61
2020/12/12 21:41:03;;;;;;;9.15;8.35;;;;;;;;;;5061278;28;20101;-61
2020/12/12 21:43:28;;;;;;;9.98;8.98;;;;;;;;;;5059944;28;20104;-58
2020/12/12 21:45:53;;;;;;;10.00;9.00;;;;;;;;;;5061170;28;20029;-63
2020/12/12 21:48:18;;;;;;;10.65;9.13;;;;;;;;;;5061322;28;20038;-60
2020/12/12 21:50:44;;;;;;;10.13;9.13;;;;;;;;;;5060816;28;20428;-60
2020/12/12 21:53:09;;;;;;;10.35;9.27;;;;;;;;;;5060830;28;20104;-61
2020/12/12 21:55:35;;;;;;;10.88;9.25;;;;;;;;;;5061867;28;20016;-61
2020/12/12 21:58:03;;;;;;;11.88;9.07;;;;;;;;;;5061305;28;20571;-61
2020/12/12 22:00:29;;;;;;;10.02;8.90;;;;;;;;;;5059646;28;20040;-61
2020/12/12 22:02:54;;;;;;;10.57;9.55;;;;;;;;;;5061456;28;20429;-61
2020/12/12 22:05:33;;;;;;;10.43;9.45;;;;;;;;;;5060988;28;20017;-60
2020/12/12 22:08:01;;;;;;;11.23;8.88;;;;;;;;;;5034301;28;96024;-61
2020/12/12 22:10:27;;;;;;;10.98;9.88;;;;;;;;;;5016923;28;20051;-61
2020/12/12 22:12:52;;;;;;;10.63;9.63;;;;;;;;;;5061073;28;20395;-61
2020/12/12 22:15:17;;;;;;;10.77;9.77;;;;;;;;;;5060618;28;20013;-60
2020/12/12 22:17:43;;;;;;;10.35;9.38;;;;;;;;;;5060764;28;20104;-61
2020/12/12 22:20:08;;;;;;;10.50;9.43;;;;;;;;;;5059565;28;20381;-60
2020/12/12 22:22:33;;;;;;;10.95;9.82;;;;;;;;;;5060708;28;20013;-61
2020/12/12 22:24:59;;;;;;;10.37;9.20;;;;;;;;;;5059649;28;20032;-61
2020/12/12 22:27:24;;;;;;;10.88;9.45;;;;;;;;;;5059269;28;20537;-61
2020/12/12 22:29:49;;;;;;;10.52;9.52;;;;;;;;;;5059569;28;20078;-61
2020/12/12 22:32:15;;;;;;;10.27;9.27;;;;;;;;;;5059385;28;20056;-61
2020/12/12 22:34:40;;;;;;;10.75;9.68;;;;;;;;;;5059644;28;20028;-61
2020/12/12 22:37:05;;;;;;;10.30;9.27;;;;;;;;;;5013222;28;20040;-61
2020/12/12 22:39:30;;;;;;;10.25;9.15;;;;;;;;;;5059650;28;20409;-61
2020/12/12 22:41:56;;;;;;;10.45;9.45;;;;;;;;;;5060179;28;20024;-61
2020/12/12 22:44:21;;;;;;;9.88;8.95;;;;;;;;;;5060229;28;20495;-61
2020/12/12 22:46:46;;;;;;;10.45;9.32;;;;;;;;;;5060590;28;20024;-61
2020/12/12 22:49:12;;;;;;;10.32;9.32;;;;;;;;;;5059633;28;20135;-61
2020/12/12 22:51:37;;;;;;;11.10;10.05;;;;;;;;;;5060128;28;20025;-63
2020/12/12 22:54:02;;;;;;;11.27;9.80;;;;;;;;;;5060028;28;20032;-61
2020/12/12 22:56:28;;;;;;;11.30;10.20;;;;;;;;;;5060231;28;20065;-61
2020/12/12 22:58:53;;;;;;;10.75;9.60;;;;;;;;;;5060487;28;20158;-61
2020/12/12 23:01:20;;;;;;;11.50;10.30;;;;;;;;;;5058997;28;20019;-61
2020/12/12 23:03:45;;;;;;;11.50;10.30;;;;;;;;;;5059299;28;20024;-61
2020/12/12 23:06:11;;;;;;;11.80;10.43;;;;;;;;;;5039064;28;20048;-61
2020/12/12 23:08:36;;;;;;;13.07;10.93;;;;;;;;;;5038830;28;20040;-60
2020/12/12 23:11:01;;;;;;;12.98;11.07;;;;;;;;;;5038175;28;20017;-60
2020/12/12 23:13:26;;;;;;;13.32;11.48;;;;;;;;;;4999409;28;85604;-61
2020/12/12 23:15:52;;;;;;;13.98;11.55;;;;;;;;;;5059537;28;20295;-59
2020/12/12 23:20:37;;;;;;;15.48;11.82;;;;;;;;;;5054005;28;20736;-61
2020/12/12 23:23:04;;;;;;;14.07;11.68;;;;;;;;;;5031556;28;155740;-60
2020/12/12 23:25:54;;;;;;;14.80;12.15;;;;;;;;;;4917354;28;75451;-59
2020/12/12 23:28:19;;;;;;;14.93;12.43;;;;;;;;;;4990114;28;20034;-59
2020/12/12 23:30:48;;;;;;;15.15;12.43;;;;;;;;;;4986313;28;20108;-61
2020/12/12 23:33:15;;;;;;;23.85;13.88;;;;;;;;;;4985872;28;20065;-57
2020/12/12 23:35:40;;;;;;;30.88;15.25;;;;;;;;;;4987636;28;20029;-58
2020/12/12 23:38:06;;;;;;;38.83;16.75;;;;;;;;;;4986014;28;20031;-59
2020/12/12 23:40:32;;;;;;;36.22;17.10;;;;;;;;;;4984715;28;20463;-58
2020/12/12 23:42:57;;;;;;;42.65;17.95;;;;;;;;;;4987236;28;20651;-57
2020/12/12 23:45:22;;;;;;;31.25;16.05;;;;;;;;;;4986203;28;20086;-57
2020/12/12 23:47:47;;;;;;;37.33;17.10;;;;;;;;;;4987438;28;20371;-58
2020/12/12 23:50:13;;;;;;;38.03;16.05;;;;;;;;;;4987352;28;20029;-56
2020/12/12 23:52:38;;;;;;;32.22;15.95;;;;;;;;;;4986522;28;20011;-57
2020/12/12 23:55:03;;;;;;;31.83;15.90;;;;;;;;;;4987328;28;20100;-57
2020/12/12 23:57:29;;;;;;;39.97;16.10;;;;;;;;;;4986799;28;20019;-57
2020/12/12 23:59:54;;;;;;;27.67;16.13;;;;;;;;;;4985383;28;20090;-55
